KCCB/CCB METAR and TAF weather

Enter ICAO airport designator
Station Type Date Time Source
KCCB METAR 2022/09/26 09:35 UTC NOAA

KCCB 260935Z AUTO 07004KT 10SM CLR 24/09 A2995 RMK AO2


Station Type Date Time Source
KCCB Decoded METAR 2022/09/26 09:35 UTC NOAA

Station name not available
Sep 26, 2022 - 05:35 AM EDT / 2022.09.26 0935 UTC
Wind: from the ENE (070 degrees) at 5 MPH (4 KT):0
Visibility: 10 mile(s):0
Sky conditions: clear
Temperature: 75 F (24 C)
Dew Point: 48 F (9 C)
Relative Humidity: 38%
Pressure (altimeter): 29.95 in. Hg (1014 hPa)
ob: KCCB 260935Z AUTO 07004KT 10SM CLR 24/09 A2995 RMK AO2
cycle: 9

Station Type Date Time Source
KCCB TAF UTC NOAA

Error!

Example: see airport list